Flight Track Log - Related Links

Times and Time Zones

All times are in EDT time to prevent confusion due to time zone crossing. See the SWA2236 flight status page for this flight to view local times or setup timezone preferences in your user account.

Time Position Orientation Groundspeed Altitude Reporting Facility
EDT Latitude Longitude Course Direction KTS MPH feet Rate Location/Type
Tue 02:53:11 PM 36.0767 -115.1014 92° East 171 197 3,300  Level Los Angeles Center
Tue 02:54:06 PM 36.0742 -115.0306 92° East 239 275 4,700 1,855 Climbing Los Angeles Center
Tue 02:55:01 PM 36.0739 -114.9506 90° East 257 296 6,700 2,224 Climbing Los Angeles Center
Tue 02:56:02 PM 36.0608 -114.8511 99° East 300 345 9,000 2,029 Climbing Los Angeles Center
Tue 02:57:17 PM 36.0419 -114.7131 100° East 322 371 11,300 1,971 Climbing Los Angeles Center
Tue 02:58:19 PM 36.0231 -114.5858 100° East 369 425 13,500 2,226 Climbing Los Angeles Center
Tue 02:59:21 PM 36.0039 -114.4528 100° East 389 448 15,900 2,419 Climbing Los Angeles Center
Tue 03:00:23 PM 35.9847 -114.3178 100° East 398 458 18,500 2,371 Climbing Los Angeles Center
Tue 03:01:25 PM 35.9642 -114.1808 100° East 403 464 20,800 1,839 Climbing Los Angeles Center
Tue 03:02:27 PM 35.9439 -114.0392 100° East 413 475 22,300 1,742 Climbing Los Angeles Center
Tue 03:03:29 PM 35.9169 -113.8614 101° East 433 498 24,400 1,742 Climbing Los Angeles Center
Tue 03:04:31 PM 35.8936 -113.7117 101° East 442 509 25,900 1,440 Climbing Los Angeles Center
Tue 03:05:34 PM 35.8697 -113.5606 101° East 454 522 27,400 1,440 Climbing Los Angeles Center
Tue 03:06:36 PM 35.8444 -113.4036 101° East 463 533 28,900 1,355 Climbing Los Angeles Center
Tue 03:07:38 PM 35.8192 -113.2461 101° East 468 539 30,200 1,403 Climbing Los Angeles Center
Tue 03:08:40 PM 35.7939 -113.0889 101° East 469 540 31,800 1,452 Climbing Los Angeles Center
Tue 03:09:42 PM 35.7631 -112.8997 101° East 468 539 33,200 1,258 Climbing Los Angeles Center
Tue 03:10:44 PM 35.7367 -112.7397 101° East 473 544 34,400 1,065 Climbing Los Angeles Center
Tue 03:11:46 PM 35.7156 -112.6119 101° East 475 547 35,400 1,113 Climbing Los Angeles Center
Tue 03:12:48 PM 35.6839 -112.4250 102° East 468 539 36,700 774 Climbing Los Angeles Center
Tue 03:13:50 PM 35.6567 -112.2686 102° East 469 540 37,000 145 Climbing Los Angeles Center
Tue 03:14:52 PM 35.6303 -112.1131 102° East 466 536 37,000  Level Los Angeles Center
Tue 03:15:54 PM 35.5978 -111.9281 102° East 463 533 37,000  Level Los Angeles Center
Tue 03:16:51 PM 35.5911 -111.8033 94° East 464 534 37,000  Level Albuquerque Center
Tue 03:17:53 PM 35.5839 -111.6153 93° East 461 531 37,000  Level Albuquerque Center
Tue 03:18:55 PM 35.5783 -111.4603 92° East 459 528 37,000  Level Albuquerque Center
Tue 03:19:57 PM 35.5717 -111.3111 93° East 461 531 37,000  Level Albuquerque Center
Tue 03:20:58 PM 35.5667 -111.1372 92° East 458 527 37,000  Level Albuquerque Center
Tue 03:22:00 PM 35.5586 -110.9869 94° East 460 529 37,000  Level Albuquerque Center
Tue 03:23:02 PM 35.5531 -110.8156 92° East 454 522 37,000  Level Albuquerque Center
Tue 03:24:04 PM 35.5467 -110.6697 93° East 450 518 37,000  Level Albuquerque Center
Tue 03:25:06 PM 35.5392 -110.4986 93° East 449 517 37,000  Level Albuquerque Center
Tue 03:26:07 PM 35.5328 -110.3511 93° East 451 519 37,000  Level Albuquerque Center
Tue 03:27:09 PM 35.5256 -110.1783 93° East 454 522 37,000  Level Albuquerque Center
Tue 03:28:11 PM 35.5189 -110.0278 93° East 458 527 37,000  Level Albuquerque Center
Tue 03:29:13 PM 35.5108 -109.8786 94° East 460 529 37,000  Level Albuquerque Center
Tue 03:30:14 PM 35.5028 -109.7042 93° East 460 529 37,000  Level Albuquerque Center
Tue 03:31:16 PM 35.4958 -109.5547 93° East 459 528 37,000  Level Albuquerque Center
Tue 03:32:18 PM 35.4861 -109.3792 94° East 463 533 37,000  Level Albuquerque Center
Tue 03:33:20 PM 35.4781 -109.2294 94° East 462 532 37,000  Level Albuquerque Center
Tue 03:34:22 PM 35.4686 -109.0528 94° East 465 535 37,000  Level Albuquerque Center
Tue 03:35:23 PM 35.4603 -108.9014 94° East 467 537 37,000  Level Albuquerque Center
Tue 03:36:25 PM 35.4517 -108.7261 93° East 465 535 37,000  Level Albuquerque Center
Tue 03:37:27 PM 35.4419 -108.5758 94° East 465 535 37,000  Level Albuquerque Center
Tue 03:38:29 PM 35.4322 -108.4011 94° East 463 533 37,000  Level Albuquerque Center
Tue 03:39:30 PM 35.4233 -108.2517 94° East 462 532 37,000  Level Albuquerque Center
Tue 03:40:32 PM 35.4125 -108.0772 94° East 461 531 37,000  Level Albuquerque Center
Tue 03:41:34 PM 35.4033 -107.9272 94° East 462 532 37,000  Level Albuquerque Center
Tue 03:42:35 PM 35.3933 -107.7792 95° East 459 528 37,000  Level Albuquerque Center
Tue 03:43:37 PM 35.3814 -107.6056 95° East 458 527 37,000  Level Albuquerque Center
Tue 03:44:39 PM 35.3692 -107.4464 95° East 457 526 37,000  Level Albuquerque Center
Tue 03:45:40 PM 35.3586 -107.2900 95° East 459 528 37,000  Level Albuquerque Center
Tue 03:46:42 PM 35.3478 -107.1358 95° East 458 527 37,000  Level Albuquerque Center
Tue 03:47:44 PM 35.3350 -106.9647 95° East 452 520 37,000  Level Albuquerque Center
Tue 03:48:45 PM 35.3239 -106.8169 95° East 454 522 37,000  Level Albuquerque Center
Tue 03:49:47 PM 35.3128 -106.6697 95° East 454 522 37,000  Level Albuquerque Center
Tue 03:50:49 PM 35.3014 -106.5089 95° East 460 529 37,000  Level Albuquerque Center
Tue 03:51:51 PM 35.2894 -106.3525 95° East 461 531 37,000  Level Albuquerque Center
Tue 03:52:52 PM 35.2742 -106.1822 96° East 454 522 37,000  Level Albuquerque Center
Tue 03:53:54 PM 35.2608 -106.0272 96° East 455 524 37,000  Level Albuquerque Center
Tue 03:54:55 PM 35.2606 -105.8719 90° East 454 522 37,000  Level Albuquerque Center
Tue 03:55:57 PM 35.2619 -105.7153 89° East 456 525 37,000  Level Albuquerque Center
Tue 03:56:59 PM 35.2569 -105.5639 92° East 444 511 37,000  Level Albuquerque Center
Tue 03:58:00 PM 35.2353 -105.3853 98° East 448 516 37,000  Level Albuquerque Center
Tue 03:59:02 PM 35.2161 -105.2325 99° East 450 518 37,000  Level Albuquerque Center
Tue 04:00:04 PM 35.1986 -105.0803 98° East 449 517 37,000  Level Albuquerque Center
Tue 04:01:05 PM 35.1814 -104.9294 98° East 447 514 37,000  Level Albuquerque Center
Tue 04:02:07 PM 35.1631 -104.7775 98° East 447 514 37,000  Level Albuquerque Center
Tue 04:03:09 PM 35.1450 -104.6261 98° East 448 516 37,000  Level Albuquerque Center
Tue 04:04:10 PM 35.1297 -104.4614 96° East 446 513 37,000  Level Albuquerque Center
Tue 04:05:12 PM 35.1333 -104.3114 88° East 441 507 37,000  Level Albuquerque Center
Tue 04:06:13 PM 35.1244 -104.1603 94° East 445 512 37,000  Level Albuquerque Center
Tue 04:07:15 PM 35.1042 -104.0108 99° East 447 514 37,000  Level Albuquerque Center
Tue 04:08:17 PM 35.0814 -103.8497 100° East 453 521 37,000  Level Albuquerque Center
Tue 04:09:18 PM 35.0622 -103.6986 99° East 450 518 37,000  Level Albuquerque Center
Tue 04:10:20 PM 35.0425 -103.5481 99° East 447 514 37,000  Level Albuquerque Center
Tue 04:11:22 PM 35.0228 -103.3975 99° East 447 514 37,000  Level Albuquerque Center
Tue 04:12:23 PM 35.0036 -103.2467 99° East 447 514 37,000  Level Albuquerque Center
Tue 04:13:25 PM 34.9797 -103.0725 99° East 443 510 37,000  Level Albuquerque Center
Tue 04:14:27 PM 34.9589 -102.9242 100° East 441 507 37,000  Level Albuquerque Center
Tue 04:15:29 PM 34.9392 -102.7753 99° East 441 507 37,000  Level Albuquerque Center
Tue 04:16:30 PM 34.9214 -102.6439 99° East 440 506 37,000  Level Albuquerque Center
Tue 04:17:32 PM 34.8956 -102.4686 100° East 441 507 37,000  Level Albuquerque Center
Tue 04:18:34 PM 34.8736 -102.3211 100° East 444 511 37,000  Level Albuquerque Center
Tue 04:19:36 PM 34.8542 -102.1750 99° East 442 509 37,000  Level Albuquerque Center
Tue 04:20:37 PM 34.8336 -102.0289 100° East 442 509 37,000  Level Albuquerque Center
Tue 04:21:39 PM 34.8122 -101.8831 100° East 442 509 37,000  Level Albuquerque Center
Tue 04:22:41 PM 34.7919 -101.7383 100° East 440 506 37,000  Level Albuquerque Center
Tue 04:23:43 PM 34.7656 -101.5636 100° East 442 509 37,000  Level Albuquerque Center
Tue 04:24:45 PM 34.7453 -101.4178 100° East 442 509 37,000  Level Albuquerque Center
Tue 04:25:46 PM 34.7242 -101.2728 100° East 440 506 37,000  Level Albuquerque Center
Tue 04:26:48 PM 34.7014 -101.1297 101° East 438 504 37,000  Level Albuquerque Center
Tue 04:27:50 PM 34.6803 -100.9864 100° East 435 501 37,000  Level Albuquerque Center
Tue 04:28:52 PM 34.6578 -100.8425 101° East 435 501 37,000  Level Albuquerque Center
Tue 04:29:54 PM 34.6308 -100.6703 101° East 435 501 37,000  Level Albuquerque Center
Tue 04:30:55 PM 34.6097 -100.5258 100° East 436 502 37,000  Level Albuquerque Center
Tue 04:31:57 PM 34.5869 -100.3811 101° East 438 504 37,000  Level Albuquerque Center
Tue 04:32:59 PM 34.5639 -100.2367 101° East 438 504 37,000  Level Albuquerque Center
Tue 04:34:01 PM 34.5408 -100.0917 101° East 439 505 37,000  Level Albuquerque Center
Tue 04:35:05 PM 34.5153 -99.9211 100° East 430 495 37,000  Level Fort Worth Center
Tue 04:36:05 PM 34.4953 -99.7794 100° East 430 495 37,000  Level Fort Worth Center
Tue 04:37:05 PM 34.4683 -99.6528 104° East 430 495 37,000  Level Fort Worth Center
Tue 04:38:05 PM 34.4436 -99.5086 102° East 430 495 37,000  Level Fort Worth Center
Tue 04:39:05 PM 34.4211 -99.3619 100° East 430 495 37,000  Level Fort Worth Center
Tue 04:40:05 PM 34.3961 -99.2231 102° East 430 495 37,000  Level Fort Worth Center
Tue 04:41:05 PM 34.3708 -99.0792 102° East 430 495 37,000  Level Fort Worth Center
Tue 04:42:05 PM 34.3478 -98.9353 101° East 430 495 37,000  Level Fort Worth Center
Tue 04:43:05 PM 34.3222 -98.7889 102° East 430 495 37,000  Level Fort Worth Center
Tue 04:44:05 PM 34.2967 -98.6453 102° East 430 495 37,000  Level Fort Worth Center
Tue 04:45:05 PM 34.2728 -98.5042 102° East 430 495 37,000  Level Fort Worth Center
Tue 04:46:05 PM 34.2469 -98.3633 102° East 430 495 37,000  Level Fort Worth Center
Tue 04:47:05 PM 34.2208 -98.2197 102° East 430 495 37,000  Level Fort Worth Center
Tue 04:48:05 PM 34.1944 -98.0789 103° East 430 495 37,000  Level Fort Worth Center
Tue 04:49:05 PM 34.1661 -97.9206 102° East 430 495 37,000  Level Fort Worth Center
Tue 04:50:05 PM 34.1394 -97.7797 103° East 430 495 37,000  Level Fort Worth Center
Tue 04:51:05 PM 34.1125 -97.6367 103° East 430 495 37,000  Level Fort Worth Center
Tue 04:52:05 PM 34.0981 -97.5064 98° East 430 495 37,000  Level Fort Worth Center
Tue 04:53:05 PM 34.0711 -97.3683 103° East 430 495 37,000  Level Fort Worth Center
Tue 04:54:05 PM 34.0481 -97.2281 101° East 430 495 37,000  Level Fort Worth Center
Tue 04:55:05 PM 34.0206 -97.0853 103° East 430 495 37,000  Level Fort Worth Center
Tue 04:56:05 PM 33.9950 -96.9450 102° East 430 495 37,000  Level Fort Worth Center
Tue 04:57:05 PM 33.9672 -96.8025 103° East 430 495 37,000  Level Fort Worth Center
Tue 04:58:05 PM 33.9372 -96.6500 103° East 430 495 37,000  Level Fort Worth Center
Tue 04:59:05 PM 33.9092 -96.5075 103° East 425 489 37,000  Level Fort Worth Center
Tue 05:00:05 PM 33.8831 -96.3678 103° East 430 495 37,000  Level Fort Worth Center
Tue 05:01:05 PM 33.8547 -96.2256 103° East 430 495 37,000  Level Fort Worth Center
Tue 05:02:05 PM 33.8261 -96.0833 104° East 430 495 37,000  Level Fort Worth Center
Tue 05:03:05 PM 33.7994 -95.9436 103° East 430 495 37,000  Level Fort Worth Center
Tue 05:04:05 PM 33.7708 -95.8019 104° East 430 495 37,000  Level Fort Worth Center
Tue 05:05:05 PM 33.7417 -95.6600 104° East 436 502 37,000  Level Fort Worth Center
Tue 05:06:05 PM 33.7147 -95.5206 103° East 430 495 37,000  Level Fort Worth Center
Tue 05:07:05 PM 33.6831 -95.3742 105° East 435 501 37,000  Level Fort Worth Center
Tue 05:08:05 PM 33.6536 -95.2300 104° East 440 506 37,000  Level Fort Worth Center
Tue 05:09:05 PM 33.6239 -95.0836 104° East 445 512 37,000  Level Fort Worth Center
Tue 05:10:05 PM 33.5961 -94.9397 103° East 445 512 37,000  Level Fort Worth Center
Tue 05:11:05 PM 33.5661 -94.7983 104° East 450 518 37,000  Level Fort Worth Center
Tue 05:12:05 PM 33.5358 -94.6522 104° East 445 512 37,000  Level Fort Worth Center
Tue 05:13:05 PM 33.5053 -94.5089 104° East 445 512 37,000  Level Fort Worth Center
Tue 05:14:05 PM 33.4750 -94.3678 104° East 445 512 37,000  Level Fort Worth Center
Tue 05:15:05 PM 33.4464 -94.2244 103° East 445 512 37,000  Level Fort Worth Center
Tue 05:16:05 PM 33.4175 -94.0836 104° East 440 506 37,000  Level Fort Worth Center
Tue 05:17:05 PM 33.3869 -93.9531 106° East 440 506 37,000  Level Fort Worth Center
Tue 05:18:05 PM 33.3508 -93.7853 104° East 460 529 37,000  Level Fort Worth Center
Tue 05:19:05 PM 33.3242 -93.6522 103° East 460 529 37,000  Level Fort Worth Center
Tue 05:20:05 PM 33.2925 -93.5094 105° East 449 517 37,000  Level Fort Worth Center
Tue 05:21:05 PM 33.2631 -93.3692 104° East 444 511 37,000  Level Fort Worth Center
Tue 05:22:05 PM 33.2314 -93.2264 105° East 444 511 37,000  Level Fort Worth Center
Tue 05:23:05 PM 33.1989 -93.0742 104° East 439 505 37,000  Level Fort Worth Center
Tue 05:24:05 PM 33.1669 -92.9317 105° East 439 505 37,000  Level Fort Worth Center
Tue 05:25:05 PM 33.1325 -92.7897 106° East 439 505 37,000  Level Fort Worth Center
Tue 05:26:05 PM 33.1000 -92.6475 105° East 439 505 37,000  Level Fort Worth Center
Tue 05:27:05 PM 33.0694 -92.5031 104° East 439 505 37,000  Level Fort Worth Center
Tue 05:28:05 PM 33.0367 -92.3636 106° East 439 505 37,000  Level Fort Worth Center
Tue 05:29:05 PM 33.0058 -92.2217 104° East 439 505 37,000  Level Fort Worth Center
Tue 05:30:50 PM 32.9453 -91.9911 107° East 417 480 37,000  Level Memphis Center
Tue 05:31:50 PM 32.9114 -91.8494 106° East 429 494 37,000  Level Memphis Center
Tue 05:32:50 PM 32.8775 -91.7078 106° East 434 499 37,000  Level Memphis Center
Tue 05:33:50 PM 32.8417 -91.5517 105° East 440 506 37,000  Level Memphis Center
Tue 05:34:50 PM 32.8094 -91.4128 105° East 440 506 37,000  Level Memphis Center
Tue 05:35:50 PM 32.7772 -91.2739 105° East 440 506 37,000  Level Memphis Center
Tue 05:36:50 PM 32.7428 -91.1303 106° East 440 506 37,000  Level Memphis Center
Tue 05:37:50 PM 32.7081 -90.9917 107° East 440 506 37,000  Level Memphis Center
Tue 05:38:50 PM 32.6731 -90.8483 106° East 440 506 37,000  Level Memphis Center
Tue 05:39:50 PM 32.6400 -90.7100 106° East 440 506 37,000  Level Memphis Center
Tue 05:40:50 PM 32.6050 -90.5719 107° East 440 506 37,000  Level Memphis Center
Tue 05:41:50 PM 32.5717 -90.4336 106° East 440 506 37,000  Level Memphis Center
Tue 05:42:51 PM 32.5361 -90.2933 107° East 440 506 37,000  Level Memphis Center
Tue 05:43:50 PM 32.5047 -90.1553 105° East 435 501 37,000  Level Memphis Center
Tue 05:44:50 PM 32.4814 -90.0272 102° East 435 501 37,000  Level Memphis Center
Tue 05:45:50 PM 32.4394 -89.8944 110° East 435 501 37,000  Level Memphis Center
Tue 05:46:50 PM 32.3969 -89.7594 110° East 435 501 37,000  Level Memphis Center
Tue 05:47:50 PM 32.3544 -89.6244 110° East 435 501 37,000  Level Memphis Center
Tue 05:48:50 PM 32.3119 -89.4897 110° East 435 501 37,000 350 Level Memphis Center
Tue 05:49:50 PM 32.2711 -89.3572 110° East 430 495 37,700 950 Climbing Memphis Center
Tue 05:50:50 PM 32.2261 -89.2203 111° Southeast 430 495 38,900 650 Climbing Memphis Center
Tue 05:51:50 PM 32.1853 -89.0883 110° East 430 495 39,000 50 Climbing Memphis Center
Tue 05:52:50 PM 32.1422 -88.9564 111° Southeast 430 495 39,000  Level Memphis Center
Tue 05:54:48 PM 32.0556 -88.6922 111° Southeast 410 472 39,000  Level Atlanta Center
Tue 05:55:48 PM 32.0122 -88.5628 112° Southeast 416 479 39,000  Level Atlanta Center
Tue 05:56:48 PM 31.9692 -88.4283 111° Southeast 428 493 39,000  Level Atlanta Center
Tue 05:57:48 PM 31.9236 -88.2989 112° Southeast 428 493 39,000  Level Atlanta Center
Tue 05:58:48 PM 31.8481 -88.1853 128° Southeast 428 493 39,000  Level Atlanta Center
Tue 05:59:48 PM 31.7747 -88.0719 127° Southeast 433 498 39,000  Level Atlanta Center
Tue 06:00:48 PM 31.7011 -87.9564 127° Southeast 439 505 39,000  Level Atlanta Center
Tue 06:01:48 PM 31.6275 -87.8433 127° Southeast 439 505 39,000  Level Atlanta Center
Tue 06:03:28 PM 31.5006 -87.6606 129° Southeast 431 496 39,000  Level Jacksonville Center
Tue 06:04:28 PM 31.4233 -87.5519 130° Southeast 436 502 39,000  Level Jacksonville Center
Tue 06:05:28 PM 31.3608 -87.4322 121° Southeast 436 502 39,000  Level Jacksonville Center
Tue 06:06:28 PM 31.3006 -87.3078 120° Southeast 436 502 39,000  Level Jacksonville Center
Tue 06:07:28 PM 31.2547 -87.1817 113° Southeast 430 495 39,000  Level Jacksonville Center
Tue 06:08:28 PM 31.2258 -87.0492 104° East 425 489 39,000  Level Jacksonville Center
Tue 06:09:28 PM 31.1939 -86.9361 108° East 411 473 39,000 -200 Level Jacksonville Center
Tue 06:10:28 PM 31.1586 -86.7961 106° East 419 482 38,600 -650 Descending Jacksonville Center
Tue 06:11:28 PM 31.1272 -86.6639 105° East 426 490 37,700 -950 Descending Jacksonville Center
Tue 06:12:28 PM 31.0956 -86.5267 105° East 431 496 36,700 -950 Descending Jacksonville Center
Tue 06:13:28 PM 31.0597 -86.3919 107° East 431 496 35,800 -1,000 Descending Jacksonville Center
Tue 06:14:28 PM 31.0242 -86.2378 105° East 441 507 34,700 -1,050 Descending Jacksonville Center
Tue 06:15:28 PM 30.9925 -86.0986 105° East 441 507 33,700 -850 Descending Jacksonville Center
Tue 06:16:28 PM 30.9603 -85.9619 105° East 441 507 33,000 -350 Descending Jacksonville Center
Tue 06:17:28 PM 30.9239 -85.8228 107° East 441 507 33,000  Level Jacksonville Center
Tue 06:18:28 PM 30.8894 -85.6861 106° East 441 507 33,000  Level Jacksonville Center
Tue 06:19:28 PM 30.8547 -85.5447 106° East 441 507 33,000  Level Jacksonville Center
Tue 06:20:28 PM 30.8200 -85.4036 106° East 446 513 33,000  Level Jacksonville Center
Tue 06:21:28 PM 30.7853 -85.2622 106° East 446 513 33,000  Level Jacksonville Center
Tue 06:22:28 PM 30.7481 -85.1236 107° East 446 513 33,000  Level Jacksonville Center
Tue 06:23:28 PM 30.7128 -84.9875 107° East 446 513 33,000  Level Jacksonville Center
Tue 06:24:28 PM 30.6794 -84.8514 106° East 441 507 33,000  Level Jacksonville Center
Tue 06:25:28 PM 30.6439 -84.7108 106° East 441 507 33,000  Level Jacksonville Center
Tue 06:26:28 PM 30.6272 -84.5656 98° East 446 513 33,000 -350 Level Jacksonville Center
Tue 06:27:28 PM 30.6186 -84.4253 94° East 441 507 32,300 -850 Descending Jacksonville Center
Tue 06:28:28 PM 30.6117 -84.2853 93° East 441 507 31,300 -1,000 Descending Jacksonville Center
Tue 06:29:28 PM 30.6047 -84.1475 93° East 441 507 30,300 -1,000 Descending Jacksonville Center
Tue 06:30:28 PM 30.5958 -84.0028 94° East 441 507 29,300 -1,000 Descending Jacksonville Center
Tue 06:31:28 PM 30.5864 -83.8628 94° East 441 507 28,300 -1,000 Descending Jacksonville Center
Tue 06:32:28 PM 30.5811 -83.7250 93° East 435 501 27,300 -1,000 Descending Jacksonville Center
Tue 06:33:28 PM 30.5714 -83.5922 95° East 423 487 26,300 -1,000 Descending Jacksonville Center
Tue 06:34:28 PM 30.5658 -83.4739 93° East 416 479 25,300 -950 Descending Jacksonville Center
Tue 06:35:28 PM 30.5581 -83.3461 94° East 406 467 24,400 -650 Descending Jacksonville Center
Tue 06:36:28 PM 30.5500 -83.2158 94° East 400 460 24,000 -450 Descending Jacksonville Center
Tue 06:37:28 PM 30.5419 -83.0903 94° East 400 460 23,500 -800 Descending Jacksonville Center
Tue 06:38:28 PM 30.5339 -82.9672 94° East 394 453 22,400 -1,300 Descending Jacksonville Center
Tue 06:39:28 PM 30.5253 -82.8322 94° East 387 445 20,900 -1,200 Descending Jacksonville Center
Tue 06:40:28 PM 30.5147 -82.7142 96° East 382 440 20,000 -1,400 Descending Jacksonville Center
Tue 06:41:28 PM 30.5083 -82.6153 94° East 368 423 18,100 -2,809 Descending Jacksonville Center
Tue 06:42:02 PM 30.5125 -82.5333 87° East 375 432 15,600 -3,000 Descending Jacksonville Center
Tue 06:43:28 PM 30.5578 -82.3908 70° East 352 405 12,100 -2,014 Descending Jacksonville Center
Tue 06:44:28 PM 30.5889 -82.2964 69° East 333 383 10,700 -1,781 Descending Jacksonville Center
Tue 06:45:36 PM 30.6236 -82.1900 69° East 279 321 8,300 -1,900 Descending Jacksonville Center
Tue 06:46:28 PM 30.6275 -82.1225 86° East 281 323 6,900 -1,554 Descending Jacksonville Center
Tue 06:47:28 PM 30.6289 -82.0331 89° East 276 318 5,400 -1,250 Descending Jacksonville Center
Tue 06:48:28 PM 30.5950 -81.9514 116° Southeast 267 307 4,400 -950 Descending Jacksonville Center
Tue 06:49:28 PM 30.5672 -81.8817 115° Southeast 260 299 3,500 -1,250 Descending Jacksonville Center
Tue 06:50:28 PM 30.5500 -81.8192 108° East 226 260 1,900 -1,100 Descending Jacksonville Center
Tue 06:51:28 PM 30.5350 -81.7686 109° East 189 217 1,300 -656 Descending Jacksonville Center
Tue 06:52:36 PM 30.5056 -81.7233 127° Southeast 135 155 500 -706 Descending Jacksonville Center
Tue 06:54:00 PM 30.4941 -81.6879 115° Southeast  Level Estimated
Tue 07:01:00 PM 30.4941 -81.6879 311° West  Level Estimated

Login

Don't have an account? Register now (free) for customized features, flight alerts, and more!